<?xml version="1.0" encoding="UTF-8" standalone="no" ?>
<gpx xmlns="http://www.topografix.com/GPX/1/1" xmlns:xsi="http://www.w3.org/2001/XMLSchema-instance" xsi:schemaLocation="http://www.topografix.com/GPX/1/1 http://www.topografix.com/GPX/1/1/gpx.xsd" version="1.1" creator="VisuGPX - https://www.visugpx.com">
  <metadata>
    <name>Traversée des Pyrénées 2/8</name>
    <desc><![CDATA[Partie 2/8 de la traversée des Pyrénées à ski.]]></desc>
  </metadata>
  <trk>
    <name><![CDATA[Ordino Course à pied]]></name>
    <trkseg>
      <trkpt lat="42.64112" lon="1.56093">
        <ele>2020</ele>
        <time>2017-02-18T06:48:53.000Z</time>
      </trkpt>
      <trkpt lat="42.64156" lon="1.56058">
        <ele>2019.4000244141</ele>
        <time>2017-02-18T06:49:53.000Z</time>
      </trkpt>
      <trkpt lat="42.64204" lon="1.5605">
        <ele>2022.5999755859</ele>
        <time>2017-02-18T06:50:53.000Z</time>
      </trkpt>
      <trkpt lat="42.64259" lon="1.56062">
        <ele>2031.4000244141</ele>
        <time>2017-02-18T06:52:07.000Z</time>
      </trkpt>
      <trkpt lat="42.6432" lon="1.55997">
        <ele>2040.1999511719</ele>
        <time>2017-02-18T06:53:19.000Z</time>
      </trkpt>
      <trkpt lat="42.64369" lon="1.55965">
        <ele>2046.4000244141</ele>
        <time>2017-02-18T06:54:32.000Z</time>
      </trkpt>
      <trkpt lat="42.64386" lon="1.5592">
        <ele>2053.3999023438</ele>
        <time>2017-02-18T06:55:44.000Z</time>
      </trkpt>
      <trkpt lat="42.64436" lon="1.55869">
        <ele>2060</ele>
        <time>2017-02-18T06:56:56.000Z</time>
      </trkpt>
      <trkpt lat="42.64462" lon="1.55789">
        <ele>2068.8000488281</ele>
        <time>2017-02-18T06:58:09.000Z</time>
      </trkpt>
      <trkpt lat="42.64488" lon="1.55695">
        <ele>2078.3999023438</ele>
        <time>2017-02-18T06:59:22.000Z</time>
      </trkpt>
      <trkpt lat="42.64511" lon="1.55616">
        <ele>2086</ele>
        <time>2017-02-18T07:00:34.000Z</time>
      </trkpt>
      <trkpt lat="42.64559" lon="1.55551">
        <ele>2093.1999511719</ele>
        <time>2017-02-18T07:01:46.000Z</time>
      </trkpt>
      <trkpt lat="42.64569" lon="1.55495">
        <ele>2096.1999511719</ele>
        <time>2017-02-18T07:02:59.000Z</time>
      </trkpt>
      <trkpt lat="42.64616" lon="1.55403">
        <ele>2101</ele>
        <time>2017-02-18T07:04:12.000Z</time>
      </trkpt>
      <trkpt lat="42.64606" lon="1.5534">
        <ele>2107.3999023438</ele>
        <time>2017-02-18T07:05:26.000Z</time>
      </trkpt>
      <trkpt lat="42.64616" lon="1.55283">
        <ele>2115.6000976562</ele>
        <time>2017-02-18T07:06:38.000Z</time>
      </trkpt>
      <trkpt lat="42.64578" lon="1.55237">
        <ele>2124.3999023438</ele>
        <time>2017-02-18T07:07:50.000Z</time>
      </trkpt>
      <trkpt lat="42.64584" lon="1.55186">
        <ele>2130.8000488281</ele>
        <time>2017-02-18T07:09:04.000Z</time>
      </trkpt>
      <trkpt lat="42.6458" lon="1.55118">
        <ele>2136.3999023438</ele>
        <time>2017-02-18T07:10:15.000Z</time>
      </trkpt>
      <trkpt lat="42.64578" lon="1.55048">
        <ele>2142.8000488281</ele>
        <time>2017-02-18T07:11:27.000Z</time>
      </trkpt>
      <trkpt lat="42.6458" lon="1.55011">
        <ele>2149.8000488281</ele>
        <time>2017-02-18T07:12:40.000Z</time>
      </trkpt>
      <trkpt lat="42.64597" lon="1.55002">
        <ele>2152.6000976562</ele>
        <time>2017-02-18T07:13:52.000Z</time>
      </trkpt>
      <trkpt lat="42.64571" lon="1.54956">
        <ele>2156.8000488281</ele>
        <time>2017-02-18T07:15:04.000Z</time>
      </trkpt>
      <trkpt lat="42.64565" lon="1.54925">
        <ele>2164</ele>
        <time>2017-02-18T07:16:17.000Z</time>
      </trkpt>
      <trkpt lat="42.64564" lon="1.54885">
        <ele>2171.3999023438</ele>
        <time>2017-02-18T07:17:30.000Z</time>
      </trkpt>
      <trkpt lat="42.64566" lon="1.5483">
        <ele>2179.3999023438</ele>
        <time>2017-02-18T07:18:42.000Z</time>
      </trkpt>
      <trkpt lat="42.64557" lon="1.54799">
        <ele>2184.1999511719</ele>
        <time>2017-02-18T07:19:55.000Z</time>
      </trkpt>
      <trkpt lat="42.64551" lon="1.54738">
        <ele>2192.8000488281</ele>
        <time>2017-02-18T07:21:07.000Z</time>
      </trkpt>
      <trkpt lat="42.64556" lon="1.54697">
        <ele>2199.6000976562</ele>
        <time>2017-02-18T07:22:19.000Z</time>
      </trkpt>
      <trkpt lat="42.64551" lon="1.54647">
        <ele>2207.1999511719</ele>
        <time>2017-02-18T07:23:32.000Z</time>
      </trkpt>
      <trkpt lat="42.64552" lon="1.54605">
        <ele>2215.6000976562</ele>
        <time>2017-02-18T07:24:46.000Z</time>
      </trkpt>
      <trkpt lat="42.64565" lon="1.54573">
        <ele>2225.6000976562</ele>
        <time>2017-02-18T07:26:01.000Z</time>
      </trkpt>
      <trkpt lat="42.64584" lon="1.54541">
        <ele>2235</ele>
        <time>2017-02-18T07:27:15.000Z</time>
      </trkpt>
      <trkpt lat="42.64571" lon="1.545">
        <ele>2243.6000976562</ele>
        <time>2017-02-18T07:28:29.000Z</time>
      </trkpt>
      <trkpt lat="42.64573" lon="1.54459">
        <ele>2252.6000976562</ele>
        <time>2017-02-18T07:29:42.000Z</time>
      </trkpt>
      <trkpt lat="42.64585" lon="1.54419">
        <ele>2262.3999023438</ele>
        <time>2017-02-18T07:30:56.000Z</time>
      </trkpt>
      <trkpt lat="42.64542" lon="1.54425">
        <ele>2270.6000976562</ele>
        <time>2017-02-18T07:32:08.000Z</time>
      </trkpt>
      <trkpt lat="42.64533" lon="1.54397">
        <ele>2279.1999511719</ele>
        <time>2017-02-18T07:33:21.000Z</time>
      </trkpt>
      <trkpt lat="42.64528" lon="1.54362">
        <ele>2289.6000976562</ele>
        <time>2017-02-18T07:34:35.000Z</time>
      </trkpt>
      <trkpt lat="42.64508" lon="1.54359">
        <ele>2298</ele>
        <time>2017-02-18T07:35:48.000Z</time>
      </trkpt>
      <trkpt lat="42.64464" lon="1.54323">
        <ele>2306.8000488281</ele>
        <time>2017-02-18T07:37:01.000Z</time>
      </trkpt>
      <trkpt lat="42.64435" lon="1.54319">
        <ele>2317.3999023438</ele>
        <time>2017-02-18T07:38:14.000Z</time>
      </trkpt>
      <trkpt lat="42.64399" lon="1.54296">
        <ele>2324.6000976562</ele>
        <time>2017-02-18T07:39:26.000Z</time>
      </trkpt>
      <trkpt lat="42.6436" lon="1.54264">
        <ele>2333.1999511719</ele>
        <time>2017-02-18T07:40:40.000Z</time>
      </trkpt>
      <trkpt lat="42.64335" lon="1.54247">
        <ele>2344</ele>
        <time>2017-02-18T07:41:53.000Z</time>
      </trkpt>
      <trkpt lat="42.64315" lon="1.54275">
        <ele>2353.8000488281</ele>
        <time>2017-02-18T07:43:07.000Z</time>
      </trkpt>
      <trkpt lat="42.64278" lon="1.54234">
        <ele>2362.6000976562</ele>
        <time>2017-02-18T07:44:21.000Z</time>
      </trkpt>
      <trkpt lat="42.6426" lon="1.54206">
        <ele>2372</ele>
        <time>2017-02-18T07:45:35.000Z</time>
      </trkpt>
      <trkpt lat="42.64213" lon="1.54168">
        <ele>2382</ele>
        <time>2017-02-18T07:46:48.000Z</time>
      </trkpt>
      <trkpt lat="42.64209" lon="1.54135">
        <ele>2390.8000488281</ele>
        <time>2017-02-18T07:48:01.000Z</time>
      </trkpt>
      <trkpt lat="42.64173" lon="1.54095">
        <ele>2399.3999023438</ele>
        <time>2017-02-18T07:49:15.000Z</time>
      </trkpt>
      <trkpt lat="42.64118" lon="1.54086">
        <ele>2404.8000488281</ele>
        <time>2017-02-18T07:50:28.000Z</time>
      </trkpt>
      <trkpt lat="42.64152" lon="1.54039">
        <ele>2413.8000488281</ele>
        <time>2017-02-18T07:51:40.000Z</time>
      </trkpt>
      <trkpt lat="42.64174" lon="1.54009">
        <ele>2422.6000976562</ele>
        <time>2017-02-18T07:52:52.000Z</time>
      </trkpt>
      <trkpt lat="42.64155" lon="1.5398">
        <ele>2432.3999023438</ele>
        <time>2017-02-18T07:54:04.000Z</time>
      </trkpt>
      <trkpt lat="42.64165" lon="1.53943">
        <ele>2441</ele>
        <time>2017-02-18T07:55:17.000Z</time>
      </trkpt>
      <trkpt lat="42.64139" lon="1.53911">
        <ele>2451.6000976562</ele>
        <time>2017-02-18T07:56:30.000Z</time>
      </trkpt>
      <trkpt lat="42.64104" lon="1.53897">
        <ele>2460.8000488281</ele>
        <time>2017-02-18T07:57:42.000Z</time>
      </trkpt>
      <trkpt lat="42.6413" lon="1.53852">
        <ele>2470.6000976562</ele>
        <time>2017-02-18T07:58:54.000Z</time>
      </trkpt>
      <trkpt lat="42.64103" lon="1.53811">
        <ele>2478.8000488281</ele>
        <time>2017-02-18T08:00:06.000Z</time>
      </trkpt>
      <trkpt lat="42.64095" lon="1.53777">
        <ele>2487.3999023438</ele>
        <time>2017-02-18T08:01:19.000Z</time>
      </trkpt>
      <trkpt lat="42.64097" lon="1.53741">
        <ele>2497</ele>
        <time>2017-02-18T08:02:32.000Z</time>
      </trkpt>
      <trkpt lat="42.6409" lon="1.53723">
        <ele>2506.3999023438</ele>
        <time>2017-02-18T08:03:44.000Z</time>
      </trkpt>
      <trkpt lat="42.64078" lon="1.53682">
        <ele>2513.8000488281</ele>
        <time>2017-02-18T08:04:58.000Z</time>
      </trkpt>
      <trkpt lat="42.64089" lon="1.53649">
        <ele>2523.8000488281</ele>
        <time>2017-02-18T08:06:10.000Z</time>
      </trkpt>
      <trkpt lat="42.64044" lon="1.53635">
        <ele>2532.1999511719</ele>
        <time>2017-02-18T08:07:22.000Z</time>
      </trkpt>
      <trkpt lat="42.64037" lon="1.53621">
        <ele>2537.6000976562</ele>
        <time>2017-02-18T08:08:34.000Z</time>
      </trkpt>
      <trkpt lat="42.64051" lon="1.53609">
        <ele>2538</ele>
        <time>2017-02-18T08:09:46.000Z</time>
      </trkpt>
      <trkpt lat="42.64037" lon="1.53613">
        <ele>2537.6000976562</ele>
        <time>2017-02-18T08:11:01.000Z</time>
      </trkpt>
      <trkpt lat="42.64029" lon="1.53623">
        <ele>2537.8000488281</ele>
        <time>2017-02-18T08:12:13.000Z</time>
      </trkpt>
      <trkpt lat="42.64037" lon="1.53606">
        <ele>2538</ele>
        <time>2017-02-18T08:13:28.000Z</time>
      </trkpt>
      <trkpt lat="42.6404" lon="1.53609">
        <ele>2538</ele>
        <time>2017-02-18T08:14:41.000Z</time>
      </trkpt>
      <trkpt lat="42.64022" lon="1.53629">
        <ele>2537.8000488281</ele>
        <time>2017-02-18T08:15:54.000Z</time>
      </trkpt>
      <trkpt lat="42.64036" lon="1.53615">
        <ele>2537.1999511719</ele>
        <time>2017-02-18T08:17:08.000Z</time>
      </trkpt>
      <trkpt lat="42.64042" lon="1.5361">
        <ele>2538</ele>
        <time>2017-02-18T08:18:21.000Z</time>
      </trkpt>
      <trkpt lat="42.6406" lon="1.536">
        <ele>2537.6000976562</ele>
        <time>2017-02-18T08:19:35.000Z</time>
      </trkpt>
      <trkpt lat="42.64023" lon="1.53606">
        <ele>2537.3999023438</ele>
        <time>2017-02-18T08:20:47.000Z</time>
      </trkpt>
      <trkpt lat="42.64039" lon="1.53619">
        <ele>2537.8000488281</ele>
        <time>2017-02-18T08:22:03.000Z</time>
      </trkpt>
      <trkpt lat="42.64026" lon="1.53615">
        <ele>2538</ele>
        <time>2017-02-18T08:23:16.000Z</time>
      </trkpt>
      <trkpt lat="42.6404" lon="1.53613">
        <ele>2538</ele>
        <time>2017-02-18T08:24:30.000Z</time>
      </trkpt>
      <trkpt lat="42.64033" lon="1.53641">
        <ele>2537.6000976562</ele>
        <time>2017-02-18T08:25:44.000Z</time>
      </trkpt>
      <trkpt lat="42.64035" lon="1.5361">
        <ele>2537.6000976562</ele>
        <time>2017-02-18T08:27:00.000Z</time>
      </trkpt>
      <trkpt lat="42.64037" lon="1.53607">
        <ele>2538.1999511719</ele>
        <time>2017-02-18T08:28:14.000Z</time>
      </trkpt>
      <trkpt lat="42.64015" lon="1.53577">
        <ele>2529.6000976562</ele>
        <time>2017-02-18T08:29:27.000Z</time>
      </trkpt>
      <trkpt lat="42.64002" lon="1.53478">
        <ele>2481.8000488281</ele>
        <time>2017-02-18T08:30:40.000Z</time>
      </trkpt>
      <trkpt lat="42.64008" lon="1.53382">
        <ele>2460.6000976562</ele>
        <time>2017-02-18T08:31:52.000Z</time>
      </trkpt>
      <trkpt lat="42.63961" lon="1.53275">
        <ele>2434.1999511719</ele>
        <time>2017-02-18T08:33:04.000Z</time>
      </trkpt>
      <trkpt lat="42.63897" lon="1.53006">
        <ele>2388.1999511719</ele>
        <time>2017-02-18T08:34:17.000Z</time>
      </trkpt>
      <trkpt lat="42.6387" lon="1.52762">
        <ele>2351</ele>
        <time>2017-02-18T08:35:31.000Z</time>
      </trkpt>
      <trkpt lat="42.63833" lon="1.52775">
        <ele>2350.6000976562</ele>
        <time>2017-02-18T08:36:42.000Z</time>
      </trkpt>
      <trkpt lat="42.63839" lon="1.52784">
        <ele>2351</ele>
        <time>2017-02-18T08:37:56.000Z</time>
      </trkpt>
      <trkpt lat="42.63845" lon="1.52788">
        <ele>2351.1999511719</ele>
        <time>2017-02-18T08:39:08.000Z</time>
      </trkpt>
      <trkpt lat="42.6384" lon="1.52788">
        <ele>2351.3999023438</ele>
        <time>2017-02-18T08:40:21.000Z</time>
      </trkpt>
      <trkpt lat="42.63743" lon="1.52675">
        <ele>2297.8000488281</ele>
        <time>2017-02-18T08:41:34.000Z</time>
      </trkpt>
      <trkpt lat="42.63717" lon="1.52581">
        <ele>2231</ele>
        <time>2017-02-18T08:42:46.000Z</time>
      </trkpt>
      <trkpt lat="42.63636" lon="1.52451">
        <ele>2159.8000488281</ele>
        <time>2017-02-18T08:44:00.000Z</time>
      </trkpt>
      <trkpt lat="42.63622" lon="1.5229">
        <ele>2122.6000976562</ele>
        <time>2017-02-18T08:45:13.000Z</time>
      </trkpt>
      <trkpt lat="42.63623" lon="1.52059">
        <ele>2111.8000488281</ele>
        <time>2017-02-18T08:46:26.000Z</time>
      </trkpt>
      <trkpt lat="42.63609" lon="1.51852">
        <ele>2068</ele>
        <time>2017-02-18T08:47:38.000Z</time>
      </trkpt>
      <trkpt lat="42.63569" lon="1.51618">
        <ele>2052.8000488281</ele>
        <time>2017-02-18T08:48:52.000Z</time>
      </trkpt>
      <trkpt lat="42.63548" lon="1.51585">
        <ele>2050.1999511719</ele>
        <time>2017-02-18T08:50:06.000Z</time>
      </trkpt>
      <trkpt lat="42.63548" lon="1.51604">
        <ele>2050.8000488281</ele>
        <time>2017-02-18T08:51:18.000Z</time>
      </trkpt>
      <trkpt lat="42.63558" lon="1.516">
        <ele>2050.1999511719</ele>
        <time>2017-02-18T08:52:31.000Z</time>
      </trkpt>
      <trkpt lat="42.63555" lon="1.51578">
        <ele>2049.1999511719</ele>
        <time>2017-02-18T08:53:44.000Z</time>
      </trkpt>
      <trkpt lat="42.63552" lon="1.51587">
        <ele>2049.3999023438</ele>
        <time>2017-02-18T08:54:58.000Z</time>
      </trkpt>
      <trkpt lat="42.63549" lon="1.51597">
        <ele>2049</ele>
        <time>2017-02-18T08:56:11.000Z</time>
      </trkpt>
      <trkpt lat="42.6351" lon="1.51477">
        <ele>2020.1999511719</ele>
        <time>2017-02-18T08:57:23.000Z</time>
      </trkpt>
      <trkpt lat="42.63437" lon="1.51371">
        <ele>1987.5999755859</ele>
        <time>2017-02-18T08:58:36.000Z</time>
      </trkpt>
      <trkpt lat="42.63401" lon="1.51342">
        <ele>1963.4000244141</ele>
        <time>2017-02-18T08:59:49.000Z</time>
      </trkpt>
      <trkpt lat="42.63335" lon="1.5132">
        <ele>1929.5999755859</ele>
        <time>2017-02-18T09:01:02.000Z</time>
      </trkpt>
      <trkpt lat="42.63376" lon="1.51265">
        <ele>1923.1999511719</ele>
        <time>2017-02-18T09:02:16.000Z</time>
      </trkpt>
      <trkpt lat="42.63328" lon="1.51099">
        <ele>1896</ele>
        <time>2017-02-18T09:03:30.000Z</time>
      </trkpt>
      <trkpt lat="42.63337" lon="1.51117">
        <ele>1895.8000488281</ele>
        <time>2017-02-18T09:04:43.000Z</time>
      </trkpt>
      <trkpt lat="42.63327" lon="1.51118">
        <ele>1896.1999511719</ele>
        <time>2017-02-18T09:05:57.000Z</time>
      </trkpt>
      <trkpt lat="42.63335" lon="1.51113">
        <ele>1896</ele>
        <time>2017-02-18T09:07:12.000Z</time>
      </trkpt>
      <trkpt lat="42.63329" lon="1.51126">
        <ele>1896.4000244141</ele>
        <time>2017-02-18T09:08:24.000Z</time>
      </trkpt>
      <trkpt lat="42.63331" lon="1.5111">
        <ele>1896</ele>
        <time>2017-02-18T09:09:38.000Z</time>
      </trkpt>
      <trkpt lat="42.63342" lon="1.51107">
        <ele>1896.1999511719</ele>
        <time>2017-02-18T09:10:51.000Z</time>
      </trkpt>
      <trkpt lat="42.63334" lon="1.51116">
        <ele>1895.5999755859</ele>
        <time>2017-02-18T09:11:51.000Z</time>
      </trkpt>
      <trkpt lat="42.63334" lon="1.51113">
        <ele>1896</ele>
        <time>2017-02-18T09:12:51.000Z</time>
      </trkpt>
      <trkpt lat="42.63333" lon="1.51118">
        <ele>1896.8000488281</ele>
        <time>2017-02-18T09:14:04.000Z</time>
      </trkpt>
      <trkpt lat="42.63337" lon="1.51111">
        <ele>1896.5999755859</ele>
        <time>2017-02-18T09:15:17.000Z</time>
      </trkpt>
      <trkpt lat="42.63332" lon="1.51096">
        <ele>1897</ele>
        <time>2017-02-18T09:16:29.000Z</time>
      </trkpt>
      <trkpt lat="42.63332" lon="1.5107">
        <ele>1897.4000244141</ele>
        <time>2017-02-18T09:17:41.000Z</time>
      </trkpt>
      <trkpt lat="42.63339" lon="1.51071">
        <ele>1898.1999511719</ele>
        <time>2017-02-18T09:18:41.000Z</time>
      </trkpt>
      <trkpt lat="42.63342" lon="1.51006">
        <ele>1903.5999755859</ele>
        <time>2017-02-18T09:19:41.000Z</time>
      </trkpt>
      <trkpt lat="42.63365" lon="1.50942">
        <ele>1910.4000244141</ele>
        <time>2017-02-18T09:20:54.000Z</time>
      </trkpt>
      <trkpt lat="42.63387" lon="1.50826">
        <ele>1916.5999755859</ele>
        <time>2017-02-18T09:22:07.000Z</time>
      </trkpt>
      <trkpt lat="42.63401" lon="1.50735">
        <ele>1922.4000244141</ele>
        <time>2017-02-18T09:23:20.000Z</time>
      </trkpt>
      <trkpt lat="42.63401" lon="1.50689">
        <ele>1929.1999511719</ele>
        <time>2017-02-18T09:24:32.000Z</time>
      </trkpt>
      <trkpt lat="42.6341" lon="1.50596">
        <ele>1935.5999755859</ele>
        <time>2017-02-18T09:25:45.000Z</time>
      </trkpt>
      <trkpt lat="42.63406" lon="1.50511">
        <ele>1941.4000244141</ele>
        <time>2017-02-18T09:26:58.000Z</time>
      </trkpt>
      <trkpt lat="42.63379" lon="1.50457">
        <ele>1946.8000488281</ele>
        <time>2017-02-18T09:28:10.000Z</time>
      </trkpt>
      <trkpt lat="42.63383" lon="1.50374">
        <ele>1952</ele>
        <time>2017-02-18T09:29:23.000Z</time>
      </trkpt>
      <trkpt lat="42.63367" lon="1.50295">
        <ele>1957.8000488281</ele>
        <time>2017-02-18T09:30:36.000Z</time>
      </trkpt>
      <trkpt lat="42.63364" lon="1.50238">
        <ele>1962.8000488281</ele>
        <time>2017-02-18T09:31:49.000Z</time>
      </trkpt>
      <trkpt lat="42.63358" lon="1.50191">
        <ele>1970.5999755859</ele>
        <time>2017-02-18T09:33:03.000Z</time>
      </trkpt>
      <trkpt lat="42.63377" lon="1.50174">
        <ele>1977.4000244141</ele>
        <time>2017-02-18T09:34:16.000Z</time>
      </trkpt>
      <trkpt lat="42.63351" lon="1.50124">
        <ele>1984</ele>
        <time>2017-02-18T09:35:28.000Z</time>
      </trkpt>
      <trkpt lat="42.63365" lon="1.5009">
        <ele>1989</ele>
        <time>2017-02-18T09:36:41.000Z</time>
      </trkpt>
      <trkpt lat="42.63353" lon="1.50107">
        <ele>1989</ele>
        <time>2017-02-18T09:37:53.000Z</time>
      </trkpt>
      <trkpt lat="42.63372" lon="1.501">
        <ele>1994.5999755859</ele>
        <time>2017-02-18T09:39:06.000Z</time>
      </trkpt>
      <trkpt lat="42.63382" lon="1.50091">
        <ele>1998.8000488281</ele>
        <time>2017-02-18T09:40:19.000Z</time>
      </trkpt>
      <trkpt lat="42.63382" lon="1.50091">
        <ele>1998.8000488281</ele>
        <time>2017-02-18T09:40:18.000Z</time>
      </trkpt>
      <trkpt lat="42.63389" lon="1.50093">
        <ele>2004.1999511719</ele>
        <time>2017-02-18T09:41:32.000Z</time>
      </trkpt>
      <trkpt lat="42.63399" lon="1.50098">
        <ele>2011.4000244141</ele>
        <time>2017-02-18T09:42:46.000Z</time>
      </trkpt>
      <trkpt lat="42.63411" lon="1.50074">
        <ele>2020.8000488281</ele>
        <time>2017-02-18T09:44:00.000Z</time>
      </trkpt>
      <trkpt lat="42.63414" lon="1.50028">
        <ele>2029.8000488281</ele>
        <time>2017-02-18T09:45:13.000Z</time>
      </trkpt>
      <trkpt lat="42.63426" lon="1.50032">
        <ele>2037.8000488281</ele>
        <time>2017-02-18T09:46:28.000Z</time>
      </trkpt>
      <trkpt lat="42.63426" lon="1.50032">
        <ele>2038</ele>
        <time>2017-02-18T09:46:27.000Z</time>
      </trkpt>
      <trkpt lat="42.63438" lon="1.50003">
        <ele>2045.8000488281</ele>
        <time>2017-02-18T09:47:39.000Z</time>
      </trkpt>
      <trkpt lat="42.63445" lon="1.49983">
        <ele>2052.1999511719</ele>
        <time>2017-02-18T09:48:51.000Z</time>
      </trkpt>
      <trkpt lat="42.63433" lon="1.50003">
        <ele>2057</ele>
        <time>2017-02-18T09:50:05.000Z</time>
      </trkpt>
      <trkpt lat="42.63441" lon="1.49979">
        <ele>2064.6000976562</ele>
        <time>2017-02-18T09:51:18.000Z</time>
      </trkpt>
      <trkpt lat="42.63451" lon="1.49958">
        <ele>2072.6000976562</ele>
        <time>2017-02-18T09:52:33.000Z</time>
      </trkpt>
      <trkpt lat="42.63448" lon="1.49925">
        <ele>2077.3999023438</ele>
        <time>2017-02-18T09:53:46.000Z</time>
      </trkpt>
      <trkpt lat="42.63441" lon="1.49852">
        <ele>2085</ele>
        <time>2017-02-18T09:55:00.000Z</time>
      </trkpt>
      <trkpt lat="42.63461" lon="1.49772">
        <ele>2086.8000488281</ele>
        <time>2017-02-18T09:56:14.000Z</time>
      </trkpt>
      <trkpt lat="42.63468" lon="1.49707">
        <ele>2093.8000488281</ele>
        <time>2017-02-18T09:57:26.000Z</time>
      </trkpt>
      <trkpt lat="42.63465" lon="1.49668">
        <ele>2096</ele>
        <time>2017-02-18T09:58:38.000Z</time>
      </trkpt>
      <trkpt lat="42.63462" lon="1.49683">
        <ele>2096</ele>
        <time>2017-02-18T09:59:51.000Z</time>
      </trkpt>
      <trkpt lat="42.63452" lon="1.49659">
        <ele>2095.8000488281</ele>
        <time>2017-02-18T10:01:04.000Z</time>
      </trkpt>
      <trkpt lat="42.63467" lon="1.49636">
        <ele>2103.8000488281</ele>
        <time>2017-02-18T10:02:16.000Z</time>
      </trkpt>
      <trkpt lat="42.63459" lon="1.49565">
        <ele>2111</ele>
        <time>2017-02-18T10:03:30.000Z</time>
      </trkpt>
      <trkpt lat="42.63458" lon="1.49544">
        <ele>2113</ele>
        <time>2017-02-18T10:04:42.000Z</time>
      </trkpt>
      <trkpt lat="42.63436" lon="1.49573">
        <ele>2113.1999511719</ele>
        <time>2017-02-18T10:05:55.000Z</time>
      </trkpt>
      <trkpt lat="42.63447" lon="1.49546">
        <ele>2113.1999511719</ele>
        <time>2017-02-18T10:07:08.000Z</time>
      </trkpt>
      <trkpt lat="42.63452" lon="1.4952">
        <ele>2112.8000488281</ele>
        <time>2017-02-18T10:08:21.000Z</time>
      </trkpt>
      <trkpt lat="42.63484" lon="1.49489">
        <ele>2112.6000976562</ele>
        <time>2017-02-18T10:09:34.000Z</time>
      </trkpt>
      <trkpt lat="42.63473" lon="1.49471">
        <ele>2118.8000488281</ele>
        <time>2017-02-18T10:10:47.000Z</time>
      </trkpt>
      <trkpt lat="42.6348" lon="1.49425">
        <ele>2125.1999511719</ele>
        <time>2017-02-18T10:12:00.000Z</time>
      </trkpt>
      <trkpt lat="42.63486" lon="1.49372">
        <ele>2133.8000488281</ele>
        <time>2017-02-18T10:13:13.000Z</time>
      </trkpt>
      <trkpt lat="42.63493" lon="1.49367">
        <ele>2143</ele>
        <time>2017-02-18T10:14:25.000Z</time>
      </trkpt>
      <trkpt lat="42.63502" lon="1.49296">
        <ele>2152.1999511719</ele>
        <time>2017-02-18T10:15:38.000Z</time>
      </trkpt>
      <trkpt lat="42.63472" lon="1.49252">
        <ele>2160.3999023438</ele>
        <time>2017-02-18T10:16:50.000Z</time>
      </trkpt>
      <trkpt lat="42.63462" lon="1.49228">
        <ele>2168.6000976562</ele>
        <time>2017-02-18T10:18:02.000Z</time>
      </trkpt>
      <trkpt lat="42.63449" lon="1.49196">
        <ele>2177.1999511719</ele>
        <time>2017-02-18T10:19:15.000Z</time>
      </trkpt>
      <trkpt lat="42.63433" lon="1.49159">
        <ele>2183.3999023438</ele>
        <time>2017-02-18T10:20:27.000Z</time>
      </trkpt>
      <trkpt lat="42.63413" lon="1.49122">
        <ele>2190.6000976562</ele>
        <time>2017-02-18T10:21:40.000Z</time>
      </trkpt>
      <trkpt lat="42.63373" lon="1.4909">
        <ele>2198</ele>
        <time>2017-02-18T10:22:53.000Z</time>
      </trkpt>
      <trkpt lat="42.63363" lon="1.49036">
        <ele>2205</ele>
        <time>2017-02-18T10:24:07.000Z</time>
      </trkpt>
      <trkpt lat="42.6331" lon="1.49019">
        <ele>2212.6000976562</ele>
        <time>2017-02-18T10:25:21.000Z</time>
      </trkpt>
      <trkpt lat="42.63331" lon="1.48961">
        <ele>2219.3999023438</ele>
        <time>2017-02-18T10:26:32.000Z</time>
      </trkpt>
      <trkpt lat="42.63339" lon="1.48961">
        <ele>2219.8000488281</ele>
        <time>2017-02-18T10:27:46.000Z</time>
      </trkpt>
      <trkpt lat="42.63293" lon="1.48949">
        <ele>2221.8000488281</ele>
        <time>2017-02-18T10:28:59.000Z</time>
      </trkpt>
      <trkpt lat="42.63252" lon="1.48884">
        <ele>2225.8000488281</ele>
        <time>2017-02-18T10:30:11.000Z</time>
      </trkpt>
      <trkpt lat="42.63213" lon="1.48833">
        <ele>2231.3999023438</ele>
        <time>2017-02-18T10:31:24.000Z</time>
      </trkpt>
      <trkpt lat="42.63203" lon="1.48765">
        <ele>2233.6000976562</ele>
        <time>2017-02-18T10:32:36.000Z</time>
      </trkpt>
      <trkpt lat="42.63166" lon="1.48696">
        <ele>2236.1999511719</ele>
        <time>2017-02-18T10:33:48.000Z</time>
      </trkpt>
      <trkpt lat="42.63172" lon="1.48593">
        <ele>2238.8000488281</ele>
        <time>2017-02-18T10:35:01.000Z</time>
      </trkpt>
      <trkpt lat="42.63148" lon="1.48511">
        <ele>2241.8000488281</ele>
        <time>2017-02-18T10:36:15.000Z</time>
      </trkpt>
      <trkpt lat="42.63148" lon="1.48432">
        <ele>2244.1999511719</ele>
        <time>2017-02-18T10:37:29.000Z</time>
      </trkpt>
      <trkpt lat="42.6314" lon="1.48338">
        <ele>2247.6000976562</ele>
        <time>2017-02-18T10:38:43.000Z</time>
      </trkpt>
      <trkpt lat="42.63168" lon="1.48255">
        <ele>2251.6000976562</ele>
        <time>2017-02-18T10:39:57.000Z</time>
      </trkpt>
      <trkpt lat="42.63171" lon="1.48184">
        <ele>2256.6000976562</ele>
        <time>2017-02-18T10:41:10.000Z</time>
      </trkpt>
      <trkpt lat="42.63151" lon="1.48108">
        <ele>2260.3999023438</ele>
        <time>2017-02-18T10:42:24.000Z</time>
      </trkpt>
      <trkpt lat="42.63163" lon="1.48114">
        <ele>2260.1999511719</ele>
        <time>2017-02-18T10:43:39.000Z</time>
      </trkpt>
      <trkpt lat="42.63134" lon="1.48087">
        <ele>2262.3999023438</ele>
        <time>2017-02-18T10:44:52.000Z</time>
      </trkpt>
      <trkpt lat="42.63134" lon="1.48087">
        <ele>2262.3999023438</ele>
        <time>2017-02-18T10:44:51.000Z</time>
      </trkpt>
      <trkpt lat="42.63152" lon="1.48081">
        <ele>2262.6000976562</ele>
        <time>2017-02-18T10:46:04.000Z</time>
      </trkpt>
      <trkpt lat="42.63142" lon="1.4807">
        <ele>2262</ele>
        <time>2017-02-18T10:47:17.000Z</time>
      </trkpt>
      <trkpt lat="42.63144" lon="1.48074">
        <ele>2262</ele>
        <time>2017-02-18T10:48:32.000Z</time>
      </trkpt>
      <trkpt lat="42.63159" lon="1.4809">
        <ele>2261.8000488281</ele>
        <time>2017-02-18T10:49:44.000Z</time>
      </trkpt>
      <trkpt lat="42.63145" lon="1.4809">
        <ele>2262.3999023438</ele>
        <time>2017-02-18T10:50:57.000Z</time>
      </trkpt>
      <trkpt lat="42.63156" lon="1.48094">
        <ele>2262.1999511719</ele>
        <time>2017-02-18T10:52:13.000Z</time>
      </trkpt>
      <trkpt lat="42.63154" lon="1.48069">
        <ele>2262.3999023438</ele>
        <time>2017-02-18T10:53:34.000Z</time>
      </trkpt>
      <trkpt lat="42.63156" lon="1.48076">
        <ele>2262.6000976562</ele>
        <time>2017-02-18T10:54:46.000Z</time>
      </trkpt>
      <trkpt lat="42.63135" lon="1.48069">
        <ele>2262.6000976562</ele>
        <time>2017-02-18T10:56:02.000Z</time>
      </trkpt>
      <trkpt lat="42.63156" lon="1.48063">
        <ele>2262.6000976562</ele>
        <time>2017-02-18T10:57:15.000Z</time>
      </trkpt>
      <trkpt lat="42.63136" lon="1.4808">
        <ele>2262.6000976562</ele>
        <time>2017-02-18T10:58:28.000Z</time>
      </trkpt>
      <trkpt lat="42.6314" lon="1.48082">
        <ele>2263</ele>
        <time>2017-02-18T10:59:40.000Z</time>
      </trkpt>
      <trkpt lat="42.63153" lon="1.48076">
        <ele>2262.6000976562</ele>
        <time>2017-02-18T11:00:54.000Z</time>
      </trkpt>
      <trkpt lat="42.63167" lon="1.48114">
        <ele>2262.3999023438</ele>
        <time>2017-02-18T11:02:10.000Z</time>
      </trkpt>
      <trkpt lat="42.63135" lon="1.48087">
        <ele>2262.8000488281</ele>
        <time>2017-02-18T11:03:23.000Z</time>
      </trkpt>
      <trkpt lat="42.63156" lon="1.48088">
        <ele>2263.1999511719</ele>
        <time>2017-02-18T11:04:38.000Z</time>
      </trkpt>
      <trkpt lat="42.63137" lon="1.48085">
        <ele>2263.1999511719</ele>
        <time>2017-02-18T11:05:52.000Z</time>
      </trkpt>
      <trkpt lat="42.63144" lon="1.48082">
        <ele>2263.3999023438</ele>
        <time>2017-02-18T11:07:05.000Z</time>
      </trkpt>
      <trkpt lat="42.63141" lon="1.48095">
        <ele>2263</ele>
        <time>2017-02-18T11:08:17.000Z</time>
      </trkpt>
      <trkpt lat="42.63145" lon="1.48075">
        <ele>2263</ele>
        <time>2017-02-18T11:09:31.000Z</time>
      </trkpt>
      <trkpt lat="42.6317" lon="1.48062">
        <ele>2264</ele>
        <time>2017-02-18T11:10:45.000Z</time>
      </trkpt>
      <trkpt lat="42.63137" lon="1.48082">
        <ele>2264.1999511719</ele>
        <time>2017-02-18T11:11:57.000Z</time>
      </trkpt>
      <trkpt lat="42.63138" lon="1.48063">
        <ele>2265.1999511719</ele>
        <time>2017-02-18T11:13:10.000Z</time>
      </trkpt>
      <trkpt lat="42.63135" lon="1.48002">
        <ele>2268.6000976562</ele>
        <time>2017-02-18T11:14:24.000Z</time>
      </trkpt>
      <trkpt lat="42.63118" lon="1.47905">
        <ele>2272.8000488281</ele>
        <time>2017-02-18T11:15:39.000Z</time>
      </trkpt>
      <trkpt lat="42.63149" lon="1.47828">
        <ele>2276.6000976562</ele>
        <time>2017-02-18T11:16:52.000Z</time>
      </trkpt>
      <trkpt lat="42.63105" lon="1.47745">
        <ele>2281.8000488281</ele>
        <time>2017-02-18T11:18:06.000Z</time>
      </trkpt>
      <trkpt lat="42.63064" lon="1.47713">
        <ele>2287.8000488281</ele>
        <time>2017-02-18T11:19:19.000Z</time>
      </trkpt>
      <trkpt lat="42.63013" lon="1.47724">
        <ele>2296.3999023438</ele>
        <time>2017-02-18T11:20:32.000Z</time>
      </trkpt>
      <trkpt lat="42.63008" lon="1.47748">
        <ele>2305.3999023438</ele>
        <time>2017-02-18T11:21:45.000Z</time>
      </trkpt>
      <trkpt lat="42.62946" lon="1.47729">
        <ele>2314.6000976562</ele>
        <time>2017-02-18T11:22:57.000Z</time>
      </trkpt>
      <trkpt lat="42.62923" lon="1.47728">
        <ele>2323.1999511719</ele>
        <time>2017-02-18T11:24:10.000Z</time>
      </trkpt>
      <trkpt lat="42.62879" lon="1.47741">
        <ele>2332.3999023438</ele>
        <time>2017-02-18T11:25:23.000Z</time>
      </trkpt>
      <trkpt lat="42.62854" lon="1.47718">
        <ele>2337.8000488281</ele>
        <time>2017-02-18T11:26:35.000Z</time>
      </trkpt>
      <trkpt lat="42.62784" lon="1.47705">
        <ele>2344.3999023438</ele>
        <time>2017-02-18T11:27:47.000Z</time>
      </trkpt>
      <trkpt lat="42.62749" lon="1.47715">
        <ele>2349.6000976562</ele>
        <time>2017-02-18T11:29:00.000Z</time>
      </trkpt>
      <trkpt lat="42.62702" lon="1.47725">
        <ele>2357</ele>
        <time>2017-02-18T11:30:13.000Z</time>
      </trkpt>
      <trkpt lat="42.62662" lon="1.47745">
        <ele>2361.6000976562</ele>
        <time>2017-02-18T11:31:26.000Z</time>
      </trkpt>
      <trkpt lat="42.62631" lon="1.4778">
        <ele>2369.3999023438</ele>
        <time>2017-02-18T11:32:39.000Z</time>
      </trkpt>
      <trkpt lat="42.62593" lon="1.4781">
        <ele>2371.6000976562</ele>
        <time>2017-02-18T11:33:53.000Z</time>
      </trkpt>
      <trkpt lat="42.62549" lon="1.4784">
        <ele>2376.6000976562</ele>
        <time>2017-02-18T11:35:07.000Z</time>
      </trkpt>
      <trkpt lat="42.62476" lon="1.47843">
        <ele>2380</ele>
        <time>2017-02-18T11:36:20.000Z</time>
      </trkpt>
      <trkpt lat="42.62404" lon="1.47844">
        <ele>2382.6000976562</ele>
        <time>2017-02-18T11:37:36.000Z</time>
      </trkpt>
      <trkpt lat="42.62339" lon="1.47852">
        <ele>2384.6000976562</ele>
        <time>2017-02-18T11:38:50.000Z</time>
      </trkpt>
      <trkpt lat="42.62288" lon="1.4784">
        <ele>2389</ele>
        <time>2017-02-18T11:40:03.000Z</time>
      </trkpt>
      <trkpt lat="42.62233" lon="1.47866">
        <ele>2393.3999023438</ele>
        <time>2017-02-18T11:41:15.000Z</time>
      </trkpt>
      <trkpt lat="42.6217" lon="1.47829">
        <ele>2397.1999511719</ele>
        <time>2017-02-18T11:42:30.000Z</time>
      </trkpt>
      <trkpt lat="42.62124" lon="1.47818">
        <ele>2402.6000976562</ele>
        <time>2017-02-18T11:43:43.000Z</time>
      </trkpt>
      <trkpt lat="42.62092" lon="1.47827">
        <ele>2411.1999511719</ele>
        <time>2017-02-18T11:44:57.000Z</time>
      </trkpt>
      <trkpt lat="42.62067" lon="1.47833">
        <ele>2421.1999511719</ele>
        <time>2017-02-18T11:46:10.000Z</time>
      </trkpt>
      <trkpt lat="42.62047" lon="1.47858">
        <ele>2429.6000976562</ele>
        <time>2017-02-18T11:47:23.000Z</time>
      </trkpt>
      <trkpt lat="42.62012" lon="1.47917">
        <ele>2436.8000488281</ele>
        <time>2017-02-18T11:48:36.000Z</time>
      </trkpt>
      <trkpt lat="42.61995" lon="1.47954">
        <ele>2445.1999511719</ele>
        <time>2017-02-18T11:49:49.000Z</time>
      </trkpt>
      <trkpt lat="42.61962" lon="1.47966">
        <ele>2450.8000488281</ele>
        <time>2017-02-18T11:51:03.000Z</time>
      </trkpt>
      <trkpt lat="42.61974" lon="1.47976">
        <ele>2451.1999511719</ele>
        <time>2017-02-18T11:52:08.000Z</time>
      </trkpt>
      <trkpt lat="42.61964" lon="1.47972">
        <ele>2451.3999023438</ele>
        <time>2017-02-18T11:53:08.000Z</time>
      </trkpt>
      <trkpt lat="42.61963" lon="1.47967">
        <ele>2451.3999023438</ele>
        <time>2017-02-18T11:54:08.000Z</time>
      </trkpt>
      <trkpt lat="42.61969" lon="1.47961">
        <ele>2452</ele>
        <time>2017-02-18T11:55:20.000Z</time>
      </trkpt>
      <trkpt lat="42.61969" lon="1.47958">
        <ele>2453.6000976562</ele>
        <time>2017-02-18T11:56:33.000Z</time>
      </trkpt>
      <trkpt lat="42.6192" lon="1.48002">
        <ele>2461.1999511719</ele>
        <time>2017-02-18T11:57:46.000Z</time>
      </trkpt>
      <trkpt lat="42.61887" lon="1.48021">
        <ele>2470.3999023438</ele>
        <time>2017-02-18T11:58:59.000Z</time>
      </trkpt>
      <trkpt lat="42.61881" lon="1.48061">
        <ele>2479.6000976562</ele>
        <time>2017-02-18T12:00:12.000Z</time>
      </trkpt>
      <trkpt lat="42.6187" lon="1.4804">
        <ele>2487.3999023438</ele>
        <time>2017-02-18T12:01:25.000Z</time>
      </trkpt>
      <trkpt lat="42.61859" lon="1.48056">
        <ele>2496</ele>
        <time>2017-02-18T12:02:37.000Z</time>
      </trkpt>
      <trkpt lat="42.61824" lon="1.48052">
        <ele>2503.1999511719</ele>
        <time>2017-02-18T12:03:50.000Z</time>
      </trkpt>
      <trkpt lat="42.61814" lon="1.48068">
        <ele>2512.3999023438</ele>
        <time>2017-02-18T12:05:02.000Z</time>
      </trkpt>
      <trkpt lat="42.61793" lon="1.48089">
        <ele>2521</ele>
        <time>2017-02-18T12:06:15.000Z</time>
      </trkpt>
      <trkpt lat="42.61792" lon="1.4811">
        <ele>2531.1999511719</ele>
        <time>2017-02-18T12:07:28.000Z</time>
      </trkpt>
      <trkpt lat="42.61747" lon="1.48099">
        <ele>2540.8000488281</ele>
        <time>2017-02-18T12:08:40.000Z</time>
      </trkpt>
      <trkpt lat="42.61769" lon="1.48042">
        <ele>2541.8000488281</ele>
        <time>2017-02-18T12:09:53.000Z</time>
      </trkpt>
      <trkpt lat="42.61816" lon="1.47988">
        <ele>2541</ele>
        <time>2017-02-18T12:11:05.000Z</time>
      </trkpt>
      <trkpt lat="42.61832" lon="1.47922">
        <ele>2532.8000488281</ele>
        <time>2017-02-18T12:12:18.000Z</time>
      </trkpt>
      <trkpt lat="42.61817" lon="1.47947">
        <ele>2536.3999023438</ele>
        <time>2017-02-18T12:13:30.000Z</time>
      </trkpt>
      <trkpt lat="42.61788" lon="1.47953">
        <ele>2544.6000976562</ele>
        <time>2017-02-18T12:14:43.000Z</time>
      </trkpt>
      <trkpt lat="42.61772" lon="1.47956">
        <ele>2552</ele>
        <time>2017-02-18T12:15:55.000Z</time>
      </trkpt>
      <trkpt lat="42.6179" lon="1.4793">
        <ele>2559.8000488281</ele>
        <time>2017-02-18T12:17:08.000Z</time>
      </trkpt>
      <trkpt lat="42.61756" lon="1.47861">
        <ele>2563.8000488281</ele>
        <time>2017-02-18T12:18:21.000Z</time>
      </trkpt>
      <trkpt lat="42.6176" lon="1.47787">
        <ele>2569</ele>
        <time>2017-02-18T12:19:33.000Z</time>
      </trkpt>
      <trkpt lat="42.61797" lon="1.47732">
        <ele>2573.3999023438</ele>
        <time>2017-02-18T12:20:46.000Z</time>
      </trkpt>
      <trkpt lat="42.61824" lon="1.47674">
        <ele>2574</ele>
        <time>2017-02-18T12:21:59.000Z</time>
      </trkpt>
      <trkpt lat="42.61861" lon="1.47641">
        <ele>2568.6000976562</ele>
        <time>2017-02-18T12:23:12.000Z</time>
      </trkpt>
      <trkpt lat="42.61859" lon="1.47621">
        <ele>2569</ele>
        <time>2017-02-18T12:24:26.000Z</time>
      </trkpt>
      <trkpt lat="42.61868" lon="1.47587">
        <ele>2565.6000976562</ele>
        <time>2017-02-18T12:25:39.000Z</time>
      </trkpt>
      <trkpt lat="42.61884" lon="1.47587">
        <ele>2564</ele>
        <time>2017-02-18T12:26:53.000Z</time>
      </trkpt>
      <trkpt lat="42.61947" lon="1.47586">
        <ele>2554.3999023438</ele>
        <time>2017-02-18T12:28:07.000Z</time>
      </trkpt>
      <trkpt lat="42.61987" lon="1.47556">
        <ele>2559.1999511719</ele>
        <time>2017-02-18T12:29:20.000Z</time>
      </trkpt>
      <trkpt lat="42.62001" lon="1.47529">
        <ele>2568.1999511719</ele>
        <time>2017-02-18T12:30:34.000Z</time>
      </trkpt>
      <trkpt lat="42.62023" lon="1.47501">
        <ele>2574.6000976562</ele>
        <time>2017-02-18T12:31:47.000Z</time>
      </trkpt>
      <trkpt lat="42.62046" lon="1.47447">
        <ele>2580.1999511719</ele>
        <time>2017-02-18T12:33:00.000Z</time>
      </trkpt>
      <trkpt lat="42.62065" lon="1.47401">
        <ele>2584</ele>
        <time>2017-02-18T12:34:13.000Z</time>
      </trkpt>
      <trkpt lat="42.62081" lon="1.47395">
        <ele>2583.6000976562</ele>
        <time>2017-02-18T12:35:27.000Z</time>
      </trkpt>
      <trkpt lat="42.62092" lon="1.47388">
        <ele>2583.3999023438</ele>
        <time>2017-02-18T12:36:41.000Z</time>
      </trkpt>
      <trkpt lat="42.62094" lon="1.47395">
        <ele>2583.6000976562</ele>
        <time>2017-02-18T12:37:56.000Z</time>
      </trkpt>
      <trkpt lat="42.62099" lon="1.47404">
        <ele>2584</ele>
        <time>2017-02-18T12:39:11.000Z</time>
      </trkpt>
      <trkpt lat="42.62097" lon="1.47388">
        <ele>2584.6000976562</ele>
        <time>2017-02-18T12:40:27.000Z</time>
      </trkpt>
      <trkpt lat="42.62075" lon="1.47392">
        <ele>2584.6000976562</ele>
        <time>2017-02-18T12:41:43.000Z</time>
      </trkpt>
      <trkpt lat="42.62086" lon="1.47393">
        <ele>2585</ele>
        <time>2017-02-18T12:42:58.000Z</time>
      </trkpt>
      <trkpt lat="42.62081" lon="1.47397">
        <ele>2585.1999511719</ele>
        <time>2017-02-18T12:44:13.000Z</time>
      </trkpt>
      <trkpt lat="42.62084" lon="1.47396">
        <ele>2585.1999511719</ele>
        <time>2017-02-18T12:45:26.000Z</time>
      </trkpt>
      <trkpt lat="42.62095" lon="1.47398">
        <ele>2585.1999511719</ele>
        <time>2017-02-18T12:46:40.000Z</time>
      </trkpt>
      <trkpt lat="42.62081" lon="1.47382">
        <ele>2585.1999511719</ele>
        <time>2017-02-18T12:47:53.000Z</time>
      </trkpt>
      <trkpt lat="42.62082" lon="1.47397">
        <ele>2585.3999023438</ele>
        <time>2017-02-18T12:49:09.000Z</time>
      </trkpt>
      <trkpt lat="42.62084" lon="1.47347">
        <ele>2577.8000488281</ele>
        <time>2017-02-18T12:50:24.000Z</time>
      </trkpt>
      <trkpt lat="42.62038" lon="1.47168">
        <ele>2525.3999023438</ele>
        <time>2017-02-18T12:51:37.000Z</time>
      </trkpt>
      <trkpt lat="42.6193" lon="1.47078">
        <ele>2479.1999511719</ele>
        <time>2017-02-18T12:52:50.000Z</time>
      </trkpt>
      <trkpt lat="42.61889" lon="1.47005">
        <ele>2448.1999511719</ele>
        <time>2017-02-18T12:54:04.000Z</time>
      </trkpt>
      <trkpt lat="42.61898" lon="1.47012">
        <ele>2445.3999023438</ele>
        <time>2017-02-18T12:55:16.000Z</time>
      </trkpt>
      <trkpt lat="42.6195" lon="1.46855">
        <ele>2403</ele>
        <time>2017-02-18T12:56:32.000Z</time>
      </trkpt>
      <trkpt lat="42.6193" lon="1.46834">
        <ele>2359.6000976562</ele>
        <time>2017-02-18T12:57:44.000Z</time>
      </trkpt>
      <trkpt lat="42.6182" lon="1.46643">
        <ele>2291.3999023438</ele>
        <time>2017-02-18T12:58:59.000Z</time>
      </trkpt>
      <trkpt lat="42.62061" lon="1.46439">
        <ele>2246.3999023438</ele>
        <time>2017-02-18T13:00:13.000Z</time>
      </trkpt>
      <trkpt lat="42.61977" lon="1.465">
        <ele>2246.6000976562</ele>
        <time>2017-02-18T13:01:26.000Z</time>
      </trkpt>
      <trkpt lat="42.61988" lon="1.4651">
        <ele>2246.6000976562</ele>
        <time>2017-02-18T13:02:39.000Z</time>
      </trkpt>
      <trkpt lat="42.61977" lon="1.46514">
        <ele>2246.6000976562</ele>
        <time>2017-02-18T13:03:51.000Z</time>
      </trkpt>
      <trkpt lat="42.61982" lon="1.46492">
        <ele>2245.6000976562</ele>
        <time>2017-02-18T13:05:05.000Z</time>
      </trkpt>
      <trkpt lat="42.62213" lon="1.45949">
        <ele>2158.8000488281</ele>
        <time>2017-02-18T13:06:20.000Z</time>
      </trkpt>
      <trkpt lat="42.62196" lon="1.4556">
        <ele>2104.3999023438</ele>
        <time>2017-02-18T13:07:33.000Z</time>
      </trkpt>
      <trkpt lat="42.62324" lon="1.45413">
        <ele>2052.3999023438</ele>
        <time>2017-02-18T13:08:46.000Z</time>
      </trkpt>
      <trkpt lat="42.62667" lon="1.4519">
        <ele>1916.8000488281</ele>
        <time>2017-02-18T13:10:14.000Z</time>
      </trkpt>
      <trkpt lat="42.62882" lon="1.45122">
        <ele>1893</ele>
        <time>2017-02-18T13:11:28.000Z</time>
      </trkpt>
      <trkpt lat="42.62859" lon="1.45117">
        <ele>1893.4000244141</ele>
        <time>2017-02-18T13:12:43.000Z</time>
      </trkpt>
      <trkpt lat="42.6291" lon="1.45129">
        <ele>1893.4000244141</ele>
        <time>2017-02-18T13:13:57.000Z</time>
      </trkpt>
      <trkpt lat="42.62883" lon="1.45131">
        <ele>1894</ele>
        <time>2017-02-18T13:15:12.000Z</time>
      </trkpt>
      <trkpt lat="42.62902" lon="1.45141">
        <ele>1894.1999511719</ele>
        <time>2017-02-18T13:16:27.000Z</time>
      </trkpt>
      <trkpt lat="42.62921" lon="1.4512">
        <ele>1895</ele>
        <time>2017-02-18T13:17:41.000Z</time>
      </trkpt>
      <trkpt lat="42.62966" lon="1.45123">
        <ele>1897.5999755859</ele>
        <time>2017-02-18T13:18:53.000Z</time>
      </trkpt>
      <trkpt lat="42.62995" lon="1.45063">
        <ele>1900.8000488281</ele>
        <time>2017-02-18T13:19:54.000Z</time>
      </trkpt>
      <trkpt lat="42.63053" lon="1.45055">
        <ele>1903</ele>
        <time>2017-02-18T13:20:54.000Z</time>
      </trkpt>
      <trkpt lat="42.63105" lon="1.45109">
        <ele>1905.5999755859</ele>
        <time>2017-02-18T13:22:08.000Z</time>
      </trkpt>
      <trkpt lat="42.63161" lon="1.45136">
        <ele>1909.5999755859</ele>
        <time>2017-02-18T13:23:21.000Z</time>
      </trkpt>
      <trkpt lat="42.63359" lon="1.45142">
        <ele>1899.4000244141</ele>
        <time>2017-02-18T13:24:33.000Z</time>
      </trkpt>
      <trkpt lat="42.63628" lon="1.45118">
        <ele>1887</ele>
        <time>2017-02-18T13:25:46.000Z</time>
      </trkpt>
      <trkpt lat="42.63954" lon="1.45099">
        <ele>1867.8000488281</ele>
        <time>2017-02-18T13:26:59.000Z</time>
      </trkpt>
      <trkpt lat="42.64219" lon="1.45069">
        <ele>1856.8000488281</ele>
        <time>2017-02-18T13:28:13.000Z</time>
      </trkpt>
      <trkpt lat="42.64452" lon="1.44958">
        <ele>1844</ele>
        <time>2017-02-18T13:29:26.000Z</time>
      </trkpt>
      <trkpt lat="42.64447" lon="1.4495">
        <ele>1841.5999755859</ele>
        <time>2017-02-18T13:30:40.000Z</time>
      </trkpt>
      <trkpt lat="42.64449" lon="1.44926">
        <ele>1841</ele>
        <time>2017-02-18T13:31:59.000Z</time>
      </trkpt>
      <trkpt lat="42.64482" lon="1.44927">
        <ele>1844</ele>
        <time>2017-02-18T13:33:13.000Z</time>
      </trkpt>
      <trkpt lat="42.64483" lon="1.4491">
        <ele>1840.1999511719</ele>
        <time>2017-02-18T13:34:26.000Z</time>
      </trkpt>
      <trkpt lat="42.64462" lon="1.44947">
        <ele>1844.1999511719</ele>
        <time>2017-02-18T13:35:41.000Z</time>
      </trkpt>
      <trkpt lat="42.64509" lon="1.44932">
        <ele>1841.5999755859</ele>
        <time>2017-02-18T13:36:55.000Z</time>
      </trkpt>
      <trkpt lat="42.64557" lon="1.4493">
        <ele>1836.4000244141</ele>
        <time>2017-02-18T13:38:10.000Z</time>
      </trkpt>
      <trkpt lat="42.64722" lon="1.45005">
        <ele>1811.8000488281</ele>
        <time>2017-02-18T13:39:23.000Z</time>
      </trkpt>
      <trkpt lat="42.64745" lon="1.45017">
        <ele>1808</ele>
        <time>2017-02-18T13:40:36.000Z</time>
      </trkpt>
      <trkpt lat="42.64773" lon="1.45019">
        <ele>1793.1999511719</ele>
        <time>2017-02-18T13:41:50.000Z</time>
      </trkpt>
      <trkpt lat="42.64817" lon="1.4502">
        <ele>1778.5999755859</ele>
        <time>2017-02-18T13:43:04.000Z</time>
      </trkpt>
      <trkpt lat="42.65111" lon="1.45117">
        <ele>1741</ele>
        <time>2017-02-18T13:44:17.000Z</time>
      </trkpt>
      <trkpt lat="42.6551" lon="1.4494">
        <ele>1691</ele>
        <time>2017-02-18T13:45:31.000Z</time>
      </trkpt>
      <trkpt lat="42.65671" lon="1.44718">
        <ele>1668.5999755859</ele>
        <time>2017-02-18T13:46:44.000Z</time>
      </trkpt>
      <trkpt lat="42.65844" lon="1.44718">
        <ele>1657.4000244141</ele>
        <time>2017-02-18T13:47:59.000Z</time>
      </trkpt>
      <trkpt lat="42.65937" lon="1.44831">
        <ele>1635.4000244141</ele>
        <time>2017-02-18T13:49:13.000Z</time>
      </trkpt>
      <trkpt lat="42.6601" lon="1.44826">
        <ele>1633.8000488281</ele>
        <time>2017-02-18T13:50:27.000Z</time>
      </trkpt>
      <trkpt lat="42.66106" lon="1.44782">
        <ele>1634</ele>
        <time>2017-02-18T13:51:41.000Z</time>
      </trkpt>
      <trkpt lat="42.66136" lon="1.4486">
        <ele>1635</ele>
        <time>2017-02-18T13:52:54.000Z</time>
      </trkpt>
      <trkpt lat="42.66235" lon="1.44881">
        <ele>1634.1999511719</ele>
        <time>2017-02-18T13:54:07.000Z</time>
      </trkpt>
      <trkpt lat="42.66319" lon="1.44882">
        <ele>1634.4000244141</ele>
        <time>2017-02-18T13:55:21.000Z</time>
      </trkpt>
      <trkpt lat="42.66406" lon="1.44903">
        <ele>1635.1999511719</ele>
        <time>2017-02-18T13:56:33.000Z</time>
      </trkpt>
      <trkpt lat="42.66468" lon="1.44951">
        <ele>1635.1999511719</ele>
        <time>2017-02-18T13:57:47.000Z</time>
      </trkpt>
      <trkpt lat="42.66477" lon="1.44946">
        <ele>1634.5999755859</ele>
        <time>2017-02-18T13:59:02.000Z</time>
      </trkpt>
      <trkpt lat="42.66511" lon="1.4494">
        <ele>1634.8000488281</ele>
        <time>2017-02-18T14:00:16.000Z</time>
      </trkpt>
      <trkpt lat="42.66563" lon="1.44987">
        <ele>1636</ele>
        <time>2017-02-18T14:01:28.000Z</time>
      </trkpt>
      <trkpt lat="42.66636" lon="1.45013">
        <ele>1636</ele>
        <time>2017-02-18T14:02:42.000Z</time>
      </trkpt>
      <trkpt lat="42.66682" lon="1.45029">
        <ele>1636</ele>
        <time>2017-02-18T14:03:55.000Z</time>
      </trkpt>
      <trkpt lat="42.66754" lon="1.45081">
        <ele>1635.1999511719</ele>
        <time>2017-02-18T14:05:11.000Z</time>
      </trkpt>
      <trkpt lat="42.66822" lon="1.4512">
        <ele>1635.1999511719</ele>
        <time>2017-02-18T14:06:24.000Z</time>
      </trkpt>
      <trkpt lat="42.66877" lon="1.4511">
        <ele>1635</ele>
        <time>2017-02-18T14:07:36.000Z</time>
      </trkpt>
      <trkpt lat="42.66838" lon="1.45116">
        <ele>1635</ele>
        <time>2017-02-18T14:08:49.000Z</time>
      </trkpt>
      <trkpt lat="42.66922" lon="1.45164">
        <ele>1635.8000488281</ele>
        <time>2017-02-18T14:10:03.000Z</time>
      </trkpt>
      <trkpt lat="42.6701" lon="1.45169">
        <ele>1636</ele>
        <time>2017-02-18T14:11:17.000Z</time>
      </trkpt>
      <trkpt lat="42.67091" lon="1.45185">
        <ele>1636.1999511719</ele>
        <time>2017-02-18T14:12:29.000Z</time>
      </trkpt>
      <trkpt lat="42.67161" lon="1.45199">
        <ele>1636</ele>
        <time>2017-02-18T14:13:42.000Z</time>
      </trkpt>
      <trkpt lat="42.67231" lon="1.45208">
        <ele>1636.4000244141</ele>
        <time>2017-02-18T14:14:55.000Z</time>
      </trkpt>
      <trkpt lat="42.67316" lon="1.4521">
        <ele>1636.5999755859</ele>
        <time>2017-02-18T14:16:09.000Z</time>
      </trkpt>
      <trkpt lat="42.6736" lon="1.4512">
        <ele>1636.8000488281</ele>
        <time>2017-02-18T14:17:22.000Z</time>
      </trkpt>
      <trkpt lat="42.67427" lon="1.45116">
        <ele>1638.5999755859</ele>
        <time>2017-02-18T14:18:35.000Z</time>
      </trkpt>
      <trkpt lat="42.67473" lon="1.4514">
        <ele>1638</ele>
        <time>2017-02-18T14:19:48.000Z</time>
      </trkpt>
      <trkpt lat="42.6752" lon="1.45185">
        <ele>1635.4000244141</ele>
        <time>2017-02-18T14:21:01.000Z</time>
      </trkpt>
      <trkpt lat="42.67541" lon="1.45164">
        <ele>1634.4000244141</ele>
        <time>2017-02-18T14:22:16.000Z</time>
      </trkpt>
      <trkpt lat="42.6753" lon="1.45178">
        <ele>1635.1999511719</ele>
        <time>2017-02-18T14:23:30.000Z</time>
      </trkpt>
      <trkpt lat="42.67527" lon="1.45174">
        <ele>1635.5999755859</ele>
        <time>2017-02-18T14:24:44.000Z</time>
      </trkpt>
      <trkpt lat="42.67569" lon="1.45202">
        <ele>1631.5999755859</ele>
        <time>2017-02-18T14:25:56.000Z</time>
      </trkpt>
      <trkpt lat="42.67646" lon="1.45256">
        <ele>1623.1999511719</ele>
        <time>2017-02-18T14:27:09.000Z</time>
      </trkpt>
      <trkpt lat="42.67733" lon="1.45289">
        <ele>1615.5999755859</ele>
        <time>2017-02-18T14:28:22.000Z</time>
      </trkpt>
      <trkpt lat="42.67806" lon="1.45222">
        <ele>1606.4000244141</ele>
        <time>2017-02-18T14:29:35.000Z</time>
      </trkpt>
      <trkpt lat="42.67868" lon="1.45219">
        <ele>1600.5999755859</ele>
        <time>2017-02-18T14:30:48.000Z</time>
      </trkpt>
      <trkpt lat="42.67909" lon="1.45176">
        <ele>1593.1999511719</ele>
        <time>2017-02-18T14:32:01.000Z</time>
      </trkpt>
      <trkpt lat="42.67815" lon="1.45164">
        <ele>1582.8000488281</ele>
        <time>2017-02-18T14:33:14.000Z</time>
      </trkpt>
      <trkpt lat="42.67777" lon="1.45106">
        <ele>1569.1999511719</ele>
        <time>2017-02-18T14:34:26.000Z</time>
      </trkpt>
      <trkpt lat="42.67822" lon="1.4509">
        <ele>1557.4000244141</ele>
        <time>2017-02-18T14:35:40.000Z</time>
      </trkpt>
      <trkpt lat="42.67892" lon="1.45015">
        <ele>1544</ele>
        <time>2017-02-18T14:37:16.000Z</time>
      </trkpt>
      <trkpt lat="42.68017" lon="1.44964">
        <ele>1531.5999755859</ele>
        <time>2017-02-18T14:39:44.000Z</time>
      </trkpt>
      <trkpt lat="42.68113" lon="1.44957">
        <ele>1520.1999511719</ele>
        <time>2017-02-18T14:41:16.000Z</time>
      </trkpt>
      <trkpt lat="42.68172" lon="1.44936">
        <ele>1504.4000244141</ele>
        <time>2017-02-18T14:42:36.000Z</time>
      </trkpt>
      <trkpt lat="42.68506" lon="1.45119">
        <ele>1474</ele>
        <time>2017-02-18T14:43:52.000Z</time>
      </trkpt>
      <trkpt lat="42.68638" lon="1.45249">
        <ele>1448.5999755859</ele>
        <time>2017-02-18T14:45:06.000Z</time>
      </trkpt>
      <trkpt lat="42.68673" lon="1.45268">
        <ele>1440</ele>
        <time>2017-02-18T14:46:20.000Z</time>
      </trkpt>
      <trkpt lat="42.68653" lon="1.45146">
        <ele>1413.8000488281</ele>
        <time>2017-02-18T14:47:41.000Z</time>
      </trkpt>
      <trkpt lat="42.6867" lon="1.45135">
        <ele>1411</ele>
        <time>2017-02-18T14:49:00.000Z</time>
      </trkpt>
      <trkpt lat="42.68691" lon="1.45205">
        <ele>1400.5999755859</ele>
        <time>2017-02-18T14:50:19.000Z</time>
      </trkpt>
      <trkpt lat="42.69119" lon="1.4533">
        <ele>1335.4000244141</ele>
        <time>2017-02-18T15:00:11.000Z</time>
      </trkpt>
      <trkpt lat="42.69181" lon="1.4531">
        <ele>1328</ele>
        <time>2017-02-18T15:01:11.000Z</time>
      </trkpt>
      <trkpt lat="42.69269" lon="1.4532">
        <ele>1320.5999755859</ele>
        <time>2017-02-18T15:02:11.000Z</time>
      </trkpt>
      <trkpt lat="42.69337" lon="1.45258">
        <ele>1309.4000244141</ele>
        <time>2017-02-18T15:03:23.000Z</time>
      </trkpt>
      <trkpt lat="42.69257" lon="1.45278">
        <ele>1296.1999511719</ele>
        <time>2017-02-18T15:04:38.000Z</time>
      </trkpt>
      <trkpt lat="42.69199" lon="1.45208">
        <ele>1279.4000244141</ele>
        <time>2017-02-18T15:05:50.000Z</time>
      </trkpt>
      <trkpt lat="42.6919" lon="1.45218">
        <ele>1260.8000488281</ele>
        <time>2017-02-18T15:07:07.000Z</time>
      </trkpt>
      <trkpt lat="42.69157" lon="1.4511">
        <ele>1258.8000488281</ele>
        <time>2017-02-18T15:08:22.000Z</time>
      </trkpt>
      <trkpt lat="42.69176" lon="1.45084">
        <ele>1258.4000244141</ele>
        <time>2017-02-18T15:09:37.000Z</time>
      </trkpt>
      <trkpt lat="42.69175" lon="1.45094">
        <ele>1258.1999511719</ele>
        <time>2017-02-18T15:09:39.000Z</time>
      </trkpt>
    </trkseg>
  </trk>
</gpx>